x

West Lake Ontario - Grimsby (45139) Wave Buoy

1:00pm - Tue 2nd Sep 2014 All times are CDT. -5 hours from GMT.

  • Sig Wave height 0.7ft
  • Peak Period 2s
  • Wind
    11mph, 13mph gusts
  • Sea Temp 69°f
  • Air Temp 74°f
  • Sea Pressure 1008.2mb
  • West Lake Ontario - Grimsby
  • West Lake Ontario - Grimsby

More Historic Weather Station data

Upgrade to MSW Pro to gain access to the past 30 days of data for over 8000 Wavebouys and Weather Stations around the globe.

Join Pro

Comparision Forecast

View Surf forecast
   
Tue 09/02 1:00pm 0.7ft 2s 11 13 mph 1008.2mb 69f 74f
12:00pm 0.3ft 6s 9 13 mph 1009.1mb 69f 73f
11:00am 0.7ft 2s 9 11 mph 1009.2mb 69f 73f
10:00am 0.3ft 2s 11 16 mph 1009.6mb 69f 75f
9:00am 0.3ft 4s 9
mph
1010.4mb 69f 74f
8:00am 0.3ft 2s 2
mph
1010.3mb 69f 72f
7:00am 0.3ft 2s 2 4 mph 1010.2mb 69f 71f
6:00am 0.3ft 2s 4 7 mph 1010.4mb 69f 71f
5:00am 0.3ft 2s 9
mph
1009.9mb 69f 71f
4:00am 0.7ft 2s 9 13 mph 1009.5mb 69f 71f
3:00am 0.7ft 2s 11 16 mph 1008.8mb 69f 72f
2:00am 1ft 3s 13 16 mph 1008.8mb 69f 72f
1:00am 1ft 3s 13 18 mph 1008.9mb 69f 72f
12:00am 1.3ft 3s 16 20 mph 1008.6mb 69f 72f
Mon 09/01 11:00pm 1.3ft 3s 18 20 mph 1008.5mb 69f 72f
10:00pm 1.3ft 3s 22 31 mph 1007.9mb 69f 76f
9:00pm 0.3ft 2s 16 22 mph 1008.3mb 69f 76f
8:00pm 0.3ft 2s 11 13 mph 1009.2mb 69f 76f
7:00pm 0.3ft 2s 11
mph
1009.4mb 69f 77f
6:00pm 1ft 3s 9 11 mph 1009.6mb 69f 78f
5:00pm 1ft 2s 18 22 mph 1009mb 69f 79f
4:00pm 1ft 2s 16 18 mph 1009.1mb 69f 78f
3:00pm 1.3ft 3s 18 25 mph 1009.3mb 69f 78f
2:00pm 1ft 2s 16 18 mph 1010.2mb 70f 78f
1:00pm 0.7ft 2s 11 13 mph 1010.9mb 70f 76f
12:00pm 0.7ft 2s 13 16 mph 1011.9mb 70f 76f
11:00am 0.7ft 2s 11 13 mph 1012.3mb 69f 75f
10:00am 0.3ft 2s 11 13 mph 1012.7mb 69f 75f
9:00am  -  3s 7 9 mph 1013.2mb 69f 74f
8:00am  -  4s 7 9 mph 1013.6mb 69f 72f
7:00am  -  3s 4 7 mph 1013.7mb 69f 71f
6:00am  -  2s 2
mph
1014.1mb 69f 70f
5:00am  -  3s 2
mph
1014mb 69f 69f
4:00am  -  4s 4
mph
1014.3mb 69f 69f
3:00am  -  3s 2 4 mph 1014.4mb 69f 70f
2:00am  -  5s 2 4 mph 1014mb 68f 70f
1:00am 0.3ft 5s 7
mph
1014mb 68f 71f
12:00am 0.3ft 5s 2
mph
1013.9mb 68f 70f
Sun 08/31 11:00pm 0.3ft 2s 7
mph
1013.8mb 68f 71f
10:00pm 0.3ft 2s 4 7 mph 1013.7mb 68f 71f
9:00pm 0.3ft 2s 7
mph
1013.6mb 69f 72f
8:00pm 0.3ft 2s 7
mph
1013.6mb 69f 72f
7:00pm 0.3ft 2s 7 9 mph 1013.3mb 69f 73f
5:00pm 0.7ft 2s 11 13 mph 1012.5mb 69f 76f
4:00pm 0.7ft 2s 13 16 mph 1012.2mb 69f 76f
3:00pm 0.7ft 3s 11 16 mph 1012.1mb 69f 77f
2:00pm 0.7ft 2s 9 13 mph 1012.4mb 69f 75f
1:00pm 0.7ft 2s 9 11 mph 1012.7mb 69f 75f
12:00pm 0.7ft 2s 13 16 mph 1012.7mb 69f 76f
11:00am 0.7ft 2s 11 13 mph 1012.7mb 68f 75f
10:00am 0.7ft 2s 9 11 mph 1013mb 68f 74f
9:00am 0.7ft 2s 13 16 mph 1013.1mb 68f 74f
8:00am 0.7ft 2s 13 18 mph 1012.9mb 68f 74f
7:00am 0.7ft 2s 13 16 mph 1012.9mb 68f 74f
6:00am 0.7ft 2s 13 16 mph 1012.5mb 68f 74f
5:00am 0.7ft 2s 16 18 mph 1012.2mb 68f 74f
4:00am 0.7ft 3s 11 13 mph 1012mb 68f 74f
3:00am 1ft 3s 16 20 mph 1012mb 69f 75f
2:00am 1ft 2s 13 18 mph 1012mb 69f 75f
1:00am 1ft 2s 13
mph
1012.4mb 69f 75f
12:00am 1ft 2s 11 16 mph 1012.3mb 69f 74f
Sat 08/30 11:00pm 0.7ft 2s 13 16 mph 1011.9mb 69f 75f
10:00pm 0.3ft 2s 9 11 mph 1012.1mb 69f 74f
9:00pm 0.7ft 2s 9 13 mph 1012.3mb 69f 74f
8:00pm 0.7ft 2s 13 16 mph 1012.6mb 69f 74f
7:00pm 0.7ft 2s 9 11 mph 1012.1mb 69f 77f
6:00pm 1ft 2s 11 13 mph 1011.7mb 69f 78f
5:00pm 1.3ft 2s 13 18 mph 1011.9mb 69f 80f
4:00pm 1.3ft 2s 18 27 mph 1012mb 70f 82f
3:00pm 1ft 2s 18 22 mph 1012.6mb 70f 82f
2:00pm 1ft 2s 13 16 mph 1013.2mb 70f 80f
1:00pm 0.7ft 2s 13 18 mph 1013.9mb 70f 80f
12:00pm 0.7ft 2s 13 16 mph 1014.6mb 69f 78f
11:00am 0.7ft 2s 13 16 mph 1015.1mb 69f 77f
10:00am 0.7ft 2s 11 13 mph 1015.6mb 69f 76f
9:00am 0.7ft 3s 7 11 mph 1016.4mb 68f 74f
8:00am 0.7ft 2s 2 4 mph 1016.5mb 68f 71f
7:00am 0.7ft 4s 4 7 mph 1017mb 68f 69f
6:00am 0.7ft 2s 9 11 mph 1017mb 67f 69f
5:00am 0.7ft 4s 9 13 mph 1016.9mb 67f 69f
4:00am 1ft 4s 11 13 mph 1016.7mb 67f 68f
3:00am 1ft 4s 7
mph
1017.2mb 67f 68f
2:00am 1.3ft 4s 9
mph
1017.7mb 67f 68f
1:00am 1.3ft 4s 7 9 mph 1018.2mb 67f 68f
12:00am 1.3ft 4s 4
mph
1018.4mb 67f 67f
Fri 08/29 11:00pm 1.3ft 4s 2
mph
1018.7mb 68f 67f
10:00pm 1.6ft 4s 4
mph
1018.7mb 68f 68f
9:00pm 1.6ft 4s 9
mph
1018.6mb 68f 68f
8:00pm 2ft 4s 9
mph
1018.9mb 68f 68f